Time,TemperatureF,DewpointF,PressureIn,WindDirection,WindDirectionDegrees,WindSpeedMPH,WindSpeedGustMPH,Humidity,HourlyPrecipIn,Conditions,Clouds,dailyrainin,SolarRadiationWatts/m^2,SoftwareType,DateUTC
2013-01-07 00:03:00,25.0,23.0,-100.00,SSE,160,0.0,0.0,91,0.00,,,0.00,0.000000,,2013-01-07 05:03:00,
2013-01-07 00:10:00,26.0,24.0,-100.00,ENE,78,0.0,0.0,92,0.00,,,0.00,0.000000,,2013-01-07 05:10:00,
2013-01-07 00:33:00,26.0,24.0,-100.00,ENE,78,0.0,0.0,92,0.00,,,0.00,0.000000,,2013-01-07 05:33:00,
2013-01-07 00:43:00,26.0,24.0,-100.00,ENE,78,0.0,0.0,92,0.00,,,0.00,0.000000,,2013-01-07 05:43:00,
2013-01-07 00:53:00,26.0,24.0,-100.00,ENE,78,0.0,0.0,92,0.00,,,0.00,0.000000,,2013-01-07 05:53:00,
2013-01-07 01:02:00,26.0,24.0,-100.00,ENE,78,0.0,0.0,92,0.00,,,0.00,0.000000,,2013-01-07 06:02:00,
2013-01-07 01:10:00,26.0,24.0,-100.00,East,90,0.0,0.0,92,0.00,,,0.00,0.000000,,2013-01-07 06:10:00,
2013-01-07 01:42:00,26.0,24.0,-100.00,East,90,0.0,0.0,92,0.00,,,0.00,0.000000,,2013-01-07 06:42:00,
2013-01-07 01:52:00,26.0,24.0,-100.00,East,90,0.0,0.0,92,0.00,,,0.00,0.000000,,2013-01-07 06:52:00,
2013-01-07 02:02:00,26.0,24.0,-100.00,East,90,0.0,0.0,92,0.00,,,0.00,0.000000,,2013-01-07 07:02:00,
2013-01-07 02:10:00,26.0,24.0,-100.00,SSW,211,0.0,0.0,92,0.00,,,0.00,0.000000,,2013-01-07 07:10:00,
2013-01-07 02:33:00,26.0,24.0,-100.00,SSW,211,0.0,0.0,92,0.00,,,0.00,0.000000,,2013-01-07 07:33:00,
2013-01-07 02:43:00,26.0,24.0,-100.00,SSW,211,0.0,0.0,92,0.00,,,0.00,0.000000,,2013-01-07 07:43:00,
2013-01-07 02:53:00,26.0,24.0,-100.00,SSW,211,0.0,0.0,92,0.00,,,0.00,0.000000,,2013-01-07 07:53:00,
2013-01-07 03:03:00,26.0,24.0,-100.00,SSW,211,0.0,0.0,92,0.00,,,0.00,0.000000,,2013-01-07 08:03:00,
2013-01-07 03:10:00,26.0,24.0,-100.00,SSW,197,1.0,1.0,92,0.00,,,0.00,0.000000,,2013-01-07 08:10:00,
2013-01-07 03:43:00,26.0,24.0,-100.00,SSW,197,1.0,1.0,92,0.00,,,0.00,0.000000,,2013-01-07 08:43:00,
2013-01-07 03:53:00,26.0,24.0,-100.00,SSW,197,1.0,1.0,92,0.00,,,0.00,0.000000,,2013-01-07 08:53:00,
2013-01-07 04:02:00,26.0,24.0,-100.00,SSW,197,1.0,1.0,92,0.00,,,0.00,0.000000,,2013-01-07 09:02:00,
2013-01-07 04:10:00,26.0,24.0,-100.00,NNW,335,2.0,3.0,92,0.00,,,0.00,0.000000,,2013-01-07 09:10:00,
2013-01-07 04:32:00,26.0,24.0,-100.00,NNW,335,2.0,3.0,92,0.00,,,0.00,0.000000,,2013-01-07 09:32:00,
2013-01-07 04:42:00,26.0,24.0,-100.00,NNW,335,2.0,3.0,92,0.00,,,0.00,0.000000,,2013-01-07 09:42:00,
2013-01-07 04:53:00,26.0,24.0,-100.00,NNW,335,2.0,3.0,92,0.00,,,0.00,0.000000,,2013-01-07 09:53:00,
2013-01-07 05:02:00,26.0,24.0,-100.00,NNW,335,2.0,3.0,92,0.00,,,0.00,0.000000,,2013-01-07 10:02:00,
2013-01-07 05:10:00,25.0,21.0,-100.00,NW,312,2.0,5.0,84,0.00,,,0.00,0.000000,,2013-01-07 10:10:00,
2013-01-07 05:33:00,25.0,21.0,-100.00,NW,312,2.0,5.0,84,0.00,,,0.00,0.000000,,2013-01-07 10:33:00,
2013-01-07 05:43:00,25.0,21.0,-100.00,NW,312,2.0,5.0,84,0.00,,,0.00,0.000000,,2013-01-07 10:43:00,
2013-01-07 05:52:00,25.0,21.0,-100.00,NW,312,2.0,5.0,84,0.00,,,0.00,0.000000,,2013-01-07 10:52:00,
2013-01-07 06:02:00,25.0,21.0,-100.00,NW,312,2.0,5.0,84,0.00,,,0.00,0.000000,,2013-01-07 11:02:00,
2013-01-07 06:10:00,20.0,14.0,-100.00,SE,130,2.0,6.0,78,0.00,,,0.00,0.000000,,2013-01-07 11:10:00,
2013-01-07 06:33:00,20.0,14.0,-100.00,SE,130,2.0,6.0,78,0.00,,,0.00,0.000000,,2013-01-07 11:33:00,
2013-01-07 06:43:00,20.0,14.0,-100.00,SE,130,2.0,6.0,78,0.00,,,0.00,0.000000,,2013-01-07 11:43:00,
2013-01-07 06:53:00,20.0,14.0,-100.00,SE,130,2.0,6.0,78,0.00,,,0.00,0.000000,,2013-01-07 11:53:00,
2013-01-07 07:03:00,20.0,14.0,-100.00,SE,130,2.0,6.0,78,0.00,,,0.00,0.000000,,2013-01-07 12:03:00,
2013-01-07 07:10:00,19.0,14.0,-100.00,NNE,21,1.0,5.0,81,0.00,,,0.00,0.000000,,2013-01-07 12:10:00,
2013-01-07 07:43:00,19.0,14.0,-100.00,NNE,21,1.0,5.0,81,0.00,,,0.00,0.000000,,2013-01-07 12:43:00,
2013-01-07 07:53:00,19.0,14.0,-100.00,NNE,21,1.0,5.0,81,0.00,,,0.00,0.000000,,2013-01-07 12:53:00,
2013-01-07 08:03:00,19.0,14.0,-100.00,NNE,21,1.0,5.0,81,0.00,,,0.00,0.000000,,2013-01-07 13:03:00,
2013-01-07 08:10:00,17.0,12.0,-100.00,East,83,2.0,5.0,79,0.00,,,0.00,0.000000,,2013-01-07 13:10:00,
2013-01-07 08:33:00,17.0,12.0,-100.00,East,83,2.0,5.0,79,0.00,,,0.00,0.000000,,2013-01-07 13:33:00,
2013-01-07 08:43:00,17.0,12.0,-100.00,East,83,2.0,5.0,79,0.00,,,0.00,0.000000,,2013-01-07 13:43:00,
2013-01-07 09:03:00,17.0,12.0,-100.00,East,83,2.0,5.0,79,0.00,,,0.00,0.000000,,2013-01-07 14:03:00,
2013-01-07 09:10:00,17.0,11.0,-100.00,NW,320,2.0,5.0,78,0.00,,,0.00,4.000000,,2013-01-07 14:10:00,
2013-01-07 09:33:00,17.0,11.0,-100.00,NW,320,2.0,5.0,78,0.00,,,0.00,4.000000,,2013-01-07 14:33:00,
2013-01-07 09:43:00,17.0,11.0,-100.00,NW,320,2.0,5.0,78,0.00,,,0.00,4.000000,,2013-01-07 14:43:00,
2013-01-07 09:53:00,17.0,11.0,-100.00,NW,320,2.0,5.0,78,0.00,,,0.00,4.000000,,2013-01-07 14:53:00,
2013-01-07 10:03:00,17.0,11.0,-100.00,NW,320,2.0,5.0,78,0.00,,,0.00,4.000000,,2013-01-07 15:03:00,
2013-01-07 10:10:00,19.0,9.0,-100.00,North,350,2.0,5.0,65,0.00,,,0.00,7.000000,,2013-01-07 15:10:00,
2013-01-07 10:33:00,19.0,9.0,-100.00,North,350,2.0,5.0,65,0.00,,,0.00,7.000000,,2013-01-07 15:33:00,
2013-01-07 10:43:00,19.0,9.0,-100.00,North,350,2.0,5.0,65,0.00,,,0.00,7.000000,,2013-01-07 15:43:00,
2013-01-07 10:53:00,19.0,9.0,-100.00,North,350,2.0,5.0,65,0.00,,,0.00,7.000000,,2013-01-07 15:53:00,
2013-01-07 11:03:00,19.0,9.0,-100.00,North,350,2.0,5.0,65,0.00,,,0.00,7.000000,,2013-01-07 16:03:00,
2013-01-07 11:10:00,19.0,9.0,-100.00,NNE,23,2.0,4.0,63,0.00,,,0.00,5.000000,,2013-01-07 16:10:00,
2013-01-07 11:33:00,19.0,9.0,-100.00,NNE,23,2.0,4.0,63,0.00,,,0.00,5.000000,,2013-01-07 16:33:00,
2013-01-07 11:43:00,19.0,9.0,-100.00,NNE,23,2.0,4.0,63,0.00,,,0.00,5.000000,,2013-01-07 16:43:00,
2013-01-07 11:53:00,19.0,9.0,-100.00,NNE,23,2.0,4.0,63,0.00,,,0.00,5.000000,,2013-01-07 16:53:00,
2013-01-07 12:03:00,19.0,9.0,-100.00,NNE,23,2.0,4.0,63,0.00,,,0.00,5.000000,,2013-01-07 17:03:00,
2013-01-07 12:10:00,23.0,11.0,-100.00,NNW,345,2.0,4.0,59,0.00,,,0.00,10.000000,,2013-01-07 17:10:00,
2013-01-07 12:33:00,23.0,11.0,-100.00,NNW,345,2.0,4.0,59,0.00,,,0.00,10.000000,,2013-01-07 17:33:00,
2013-01-07 12:43:00,23.0,11.0,-100.00,NNW,345,2.0,4.0,59,0.00,,,0.00,10.000000,,2013-01-07 17:43:00,
2013-01-07 12:53:00,23.0,11.0,-100.00,NNW,345,2.0,4.0,59,0.00,,,0.00,10.000000,,2013-01-07 17:53:00,
2013-01-07 13:03:00,23.0,11.0,-100.00,NNW,345,2.0,4.0,59,0.00,,,0.00,10.000000,,2013-01-07 18:03:00,
2013-01-07 13:10:00,22.0,8.0,-100.00,ENE,67,2.0,5.0,55,0.00,,,0.00,12.000000,,2013-01-07 18:10:00,
2013-01-07 13:33:00,22.0,8.0,-100.00,ENE,67,2.0,5.0,55,0.00,,,0.00,12.000000,,2013-01-07 18:33:00,
2013-01-07 13:43:00,22.0,8.0,-100.00,ENE,67,2.0,5.0,55,0.00,,,0.00,12.000000,,2013-01-07 18:43:00,
2013-01-07 13:53:00,22.0,8.0,-100.00,ENE,67,2.0,5.0,55,0.00,,,0.00,12.000000,,2013-01-07 18:53:00,
2013-01-07 14:03:00,22.0,8.0,-100.00,ENE,67,2.0,5.0,55,0.00,,,0.00,12.000000,,2013-01-07 19:03:00,
2013-01-07 14:10:00,24.0,9.0,-100.00,SSW,205,2.0,6.0,51,0.00,,,0.00,15.000000,,2013-01-07 19:10:00,
2013-01-07 14:43:00,24.0,9.0,-100.00,SSW,205,2.0,6.0,51,0.00,,,0.00,15.000000,,2013-01-07 19:43:00,
2013-01-07 14:53:00,24.0,9.0,-100.00,SSW,205,2.0,6.0,51,0.00,,,0.00,15.000000,,2013-01-07 19:53:00,
2013-01-07 15:03:00,24.0,9.0,-100.00,SSW,205,2.0,6.0,51,0.00,,,0.00,15.000000,,2013-01-07 20:03:00,
2013-01-07 15:10:00,22.0,7.0,-100.00,SW,236,3.0,6.0,51,0.00,,,0.00,14.000000,,2013-01-07 20:10:00,
2013-01-07 15:43:00,22.0,7.0,-100.00,SW,236,3.0,6.0,51,0.00,,,0.00,14.000000,,2013-01-07 20:43:00,
2013-01-07 15:53:00,22.0,7.0,-100.00,SW,236,3.0,6.0,51,0.00,,,0.00,14.000000,,2013-01-07 20:53:00,
2013-01-07 16:03:00,22.0,7.0,-100.00,SW,236,3.0,6.0,51,0.00,,,0.00,14.000000,,2013-01-07 21:03:00,
2013-01-07 16:10:00,20.0,6.0,-100.00,SW,234,2.0,8.0,55,0.00,,,0.00,2.000000,,2013-01-07 21:10:00,
2013-01-07 16:33:00,20.0,6.0,-100.00,SW,234,2.0,8.0,55,0.00,,,0.00,2.000000,,2013-01-07 21:33:00,
2013-01-07 16:43:00,20.0,6.0,-100.00,SW,234,2.0,8.0,55,0.00,,,0.00,2.000000,,2013-01-07 21:43:00,
2013-01-07 16:53:00,20.0,6.0,-100.00,SW,234,2.0,8.0,55,0.00,,,0.00,2.000000,,2013-01-07 21:53:00,
2013-01-07 17:03:00,20.0,6.0,-100.00,SW,234,2.0,8.0,55,0.00,,,0.00,2.000000,,2013-01-07 22:03:00,
2013-01-07 17:10:00,13.0,7.0,-100.00,SE,126,1.0,4.0,77,0.00,,,0.00,0.000000,,2013-01-07 22:10:00,
2013-01-07 17:43:00,13.0,7.0,-100.00,SE,126,1.0,4.0,77,0.00,,,0.00,0.000000,,2013-01-07 22:43:00,
2013-01-07 17:53:00,13.0,7.0,-100.00,SE,126,1.0,4.0,77,0.00,,,0.00,0.000000,,2013-01-07 22:53:00,
2013-01-07 18:03:00,13.0,7.0,-100.00,SE,126,1.0,4.0,77,0.00,,,0.00,0.000000,,2013-01-07 23:03:00,
2013-01-07 18:10:00,9.0,4.0,-100.00,SE,126,1.0,3.0,79,0.00,,,0.00,0.000000,,2013-01-07 23:10:00,
2013-01-07 18:33:00,9.0,4.0,-100.00,SE,126,1.0,3.0,79,0.00,,,0.00,0.000000,,2013-01-07 23:33:00,
2013-01-07 18:43:00,9.0,4.0,-100.00,SE,126,1.0,3.0,79,0.00,,,0.00,0.000000,,2013-01-07 23:43:00,
2013-01-07 18:53:00,9.0,4.0,-100.00,SE,126,1.0,3.0,79,0.00,,,0.00,0.000000,,2013-01-07 23:53:00,
2013-01-07 19:03:00,9.0,4.0,-100.00,SE,126,1.0,3.0,79,0.00,,,0.00,0.000000,,2013-01-08 00:03:00,
2013-01-07 19:10:00,6.0,1.0,-100.00,East,94,2.0,3.0,80,0.00,,,0.00,0.000000,,2013-01-08 00:10:00,
2013-01-07 19:33:00,6.0,1.0,-100.00,East,94,2.0,3.0,80,0.00,,,0.00,0.000000,,2013-01-08 00:33:00,
2013-01-07 19:43:00,6.0,1.0,-100.00,East,94,2.0,3.0,80,0.00,,,0.00,0.000000,,2013-01-08 00:43:00,
2013-01-07 19:53:00,6.0,1.0,-100.00,East,94,2.0,3.0,80,0.00,,,0.00,0.000000,,2013-01-08 00:53:00,
2013-01-07 20:03:00,6.0,1.0,-100.00,East,94,2.0,3.0,80,0.00,,,0.00,0.000000,,2013-01-08 01:03:00,
2013-01-07 20:10:00,3.0,-2.0,-100.00,ESE,113,0.0,2.0,80,0.00,,,0.00,0.000000,,2013-01-08 01:10:00,
2013-01-07 20:33:00,3.0,-2.0,-100.00,ESE,113,0.0,2.0,80,0.00,,,0.00,0.000000,,2013-01-08 01:33:00,
2013-01-07 20:42:00,3.0,-2.0,-100.00,ESE,113,0.0,2.0,80,0.00,,,0.00,0.000000,,2013-01-08 01:42:00,
2013-01-07 20:53:00,3.0,-2.0,-100.00,ESE,113,0.0,2.0,80,0.00,,,0.00,0.000000,,2013-01-08 01:53:00,
2013-01-07 21:02:00,3.0,-2.0,-100.00,ESE,113,0.0,2.0,80,0.00,,,0.00,0.000000,,2013-01-08 02:02:00,
2013-01-07 21:10:00,1.0,-4.0,-100.00,ESE,114,0.0,2.0,79,0.00,,,0.00,0.000000,,2013-01-08 02:10:00,
2013-01-07 21:33:00,1.0,-4.0,-100.00,ESE,114,0.0,2.0,79,0.00,,,0.00,0.000000,,2013-01-08 02:33:00,
2013-01-07 21:43:00,1.0,-4.0,-100.00,ESE,114,0.0,2.0,79,0.00,,,0.00,0.000000,,2013-01-08 02:43:00,
2013-01-07 21:53:00,1.0,-4.0,-100.00,ESE,114,0.0,2.0,79,0.00,,,0.00,0.000000,,2013-01-08 02:53:00,
2013-01-07 22:03:00,1.0,-4.0,-100.00,ESE,114,0.0,2.0,79,0.00,,,0.00,0.000000,,2013-01-08 03:03:00,
2013-01-07 22:10:00,-1.0,-6.0,-100.00,East,91,1.0,2.0,78,0.00,,,0.00,0.000000,,2013-01-08 03:10:00,
2013-01-07 22:33:00,-1.0,-6.0,-100.00,East,91,1.0,2.0,78,0.00,,,0.00,0.000000,,2013-01-08 03:33:00,
2013-01-07 22:43:00,-1.0,-6.0,-100.00,East,91,1.0,2.0,78,0.00,,,0.00,0.000000,,2013-01-08 03:43:00,
2013-01-07 22:53:00,-1.0,-6.0,-100.00,East,91,1.0,2.0,78,0.00,,,0.00,0.000000,,2013-01-08 03:53:00,
2013-01-07 23:02:00,-1.0,-6.0,-100.00,East,91,1.0,2.0,78,0.00,,,0.00,0.000000,,2013-01-08 04:02:00,
2013-01-07 23:10:00,-3.0,-9.0,-100.00,ENE,66,1.0,4.0,76,0.00,,,0.00,0.000000,,2013-01-08 04:10:00,
2013-01-07 23:32:00,-3.0,-9.0,-100.00,ENE,66,1.0,4.0,76,0.00,,,0.00,0.000000,,2013-01-08 04:32:00,
2013-01-07 23:43:00,-3.0,-9.0,-100.00,ENE,66,1.0,4.0,76,0.00,,,0.00,0.000000,,2013-01-08 04:43:00,
2013-01-07 23:52:00,-3.0,-9.0,-100.00,ENE,66,1.0,4.0,76,0.00,,,0.00,0.000000,,2013-01-08 04:52:00,